sensor_id;sensor_type;location;lat;lon;timestamp;P1;durP1;ratioP1;P2;durP2;ratioP2
32455;SDS011;18912;43.270;27.942;2022-11-13T00:00:34;87.68;;;14.38;;
32455;SDS011;18912;43.270;27.942;2022-11-13T00:03:00;165.37;;;15.77;;
32455;SDS011;18912;43.270;27.942;2022-11-13T00:05:25;115.90;;;15.63;;
32455;SDS011;18912;43.270;27.942;2022-11-13T00:07:51;58.03;;;13.93;;
32455;SDS011;18912;43.270;27.942;2022-11-13T00:10:16;147.50;;;15.27;;
32455;SDS011;18912;43.270;27.942;2022-11-13T00:12:42;120.90;;;15.57;;
32455;SDS011;18912;43.270;27.942;2022-11-13T00:15:08;170.50;;;17.43;;
32455;SDS011;18912;43.270;27.942;2022-11-13T00:17:34;147.52;;;18.17;;
32455;SDS011;18912;43.270;27.942;2022-11-13T00:19:59;97.50;;;15.03;;
32455;SDS011;18912;43.270;27.942;2022-11-13T00:22:24;57.00;;;16.20;;
32455;SDS011;18912;43.270;27.942;2022-11-13T00:24:50;104.57;;;17.70;;
32455;SDS011;18912;43.270;27.942;2022-11-13T00:27:15;81.77;;;17.60;;
32455;SDS011;18912;43.270;27.942;2022-11-13T00:29:41;195.17;;;18.53;;
32455;SDS011;18912;43.270;27.942;2022-11-13T00:32:06;75.30;;;12.07;;
32455;SDS011;18912;43.270;27.942;2022-11-13T00:34:32;60.77;;;11.70;;
32455;SDS011;18912;43.270;27.942;2022-11-13T00:36:57;137.70;;;12.87;;
32455;SDS011;18912;43.270;27.942;2022-11-13T00:39:23;64.80;;;11.93;;
32455;SDS011;18912;43.270;27.942;2022-11-13T00:41:48;69.43;;;12.63;;
32455;SDS011;18912;43.270;27.942;2022-11-13T00:44:14;61.07;;;14.20;;
32455;SDS011;18912;43.270;27.942;2022-11-13T00:46:39;64.20;;;13.10;;
32455;SDS011;18912;43.270;27.942;2022-11-13T00:49:05;79.50;;;12.10;;
32455;SDS011;18912;43.270;27.942;2022-11-13T00:51:30;32.23;;;10.20;;
32455;SDS011;18912;43.270;27.942;2022-11-13T00:53:56;50.67;;;13.33;;
32455;SDS011;18912;43.270;27.942;2022-11-13T00:56:21;58.73;;;12.37;;
32455;SDS011;18912;43.270;27.942;2022-11-13T00:58:47;40.47;;;11.57;;
32455;SDS011;18912;43.270;27.942;2022-11-13T01:01:14;84.63;;;13.87;;
32455;SDS011;18912;43.270;27.942;2022-11-13T01:03:41;68.57;;;14.02;;
32455;SDS011;18912;43.270;27.942;2022-11-13T01:06:11;45.85;;;13.82;;
32455;SDS011;18912;43.270;27.942;2022-11-13T01:08:47;39.20;;;14.73;;
32455;SDS011;18912;43.270;27.942;2022-11-13T01:11:14;172.93;;;16.15;;
32455;SDS011;18912;43.270;27.942;2022-11-13T01:13:43;55.97;;;14.35;;
32455;SDS011;18912;43.270;27.942;2022-11-13T01:16:11;102.60;;;15.55;;
32455;SDS011;18912;43.270;27.942;2022-11-13T01:18:38;122.63;;;15.18;;
32455;SDS011;18912;43.270;27.942;2022-11-13T01:21:06;69.72;;;14.35;;
32455;SDS011;18912;43.270;27.942;2022-11-13T01:23:34;262.40;;;18.73;;
32455;SDS011;18912;43.270;27.942;2022-11-13T01:28:46;40.85;;;12.15;;
32455;SDS011;18912;43.270;27.942;2022-11-13T01:31:13;38.30;;;12.60;;
32455;SDS011;18912;43.270;27.942;2022-11-13T01:33:41;24.83;;;13.35;;
32455;SDS011;18912;43.270;27.942;2022-11-13T01:36:08;22.02;;;12.23;;
32455;SDS011;18912;43.270;27.942;2022-11-13T01:38:36;22.02;;;12.52;;
32455;SDS011;18912;43.270;27.942;2022-11-13T01:41:02;37.07;;;13.73;;
32455;SDS011;18912;43.270;27.942;2022-11-13T01:43:30;69.97;;;12.40;;
32455;SDS011;18912;43.270;27.942;2022-11-13T01:46:10;20.35;;;11.32;;
32455;SDS011;18912;43.270;27.942;2022-11-13T01:48:45;17.95;;;10.85;;
32455;SDS011;18912;43.270;27.942;2022-11-13T01:51:19;44.05;;;11.10;;
32455;SDS011;18912;43.270;27.942;2022-11-13T01:53:50;153.70;;;12.82;;
32455;SDS011;18912;43.270;27.942;2022-11-13T01:58:43;163.45;;;10.05;;
32455;SDS011;18912;43.270;27.942;2022-11-13T02:01:15;144.45;;;9.85;;
32455;SDS011;18912;43.270;27.942;2022-11-13T02:03:40;135.53;;;9.47;;
32455;SDS011;18912;43.270;27.942;2022-11-13T02:06:06;182.17;;;9.00;;
32455;SDS011;18912;43.270;27.942;2022-11-13T02:08:32;330.13;;;12.32;;
32455;SDS011;18912;43.270;27.942;2022-11-13T02:10:58;253.17;;;10.83;;
32455;SDS011;18912;43.270;27.942;2022-11-13T02:13:23;78.87;;;7.13;;
32455;SDS011;18912;43.270;27.942;2022-11-13T02:15:49;456.00;;;16.25;;
32455;SDS011;18912;43.270;27.942;2022-11-13T02:18:15;256.52;;;9.75;;
32455;SDS011;18912;43.270;27.942;2022-11-13T02:20:46;202.68;;;9.63;;
32455;SDS011;18912;43.270;27.942;2022-11-13T02:23:34;171.35;;;8.88;;
32455;SDS011;18912;43.270;27.942;2022-11-13T02:26:05;132.45;;;8.80;;
32455;SDS011;18912;43.270;27.942;2022-11-13T02:28:33;144.35;;;7.35;;
32455;SDS011;18912;43.270;27.942;2022-11-13T02:31:05;80.70;;;6.27;;
32455;SDS011;18912;43.270;27.942;2022-11-13T02:33:32;84.80;;;6.50;;
32455;SDS011;18912;43.270;27.942;2022-11-13T02:35:57;77.07;;;7.20;;
32455;SDS011;18912;43.270;27.942;2022-11-13T02:38:23;41.22;;;5.72;;
32455;SDS011;18912;43.270;27.942;2022-11-13T02:40:49;29.93;;;6.60;;
32455;SDS011;18912;43.270;27.942;2022-11-13T02:43:14;56.47;;;7.83;;
32455;SDS011;18912;43.270;27.942;2022-11-13T02:45:40;15.20;;;7.27;;
32455;SDS011;18912;43.270;27.942;2022-11-13T02:48:06;14.07;;;7.13;;
32455;SDS011;18912;43.270;27.942;2022-11-13T02:50:32;45.72;;;6.95;;
32455;SDS011;18912;43.270;27.942;2022-11-13T02:52:59;22.02;;;7.30;;
32455;SDS011;18912;43.270;27.942;2022-11-13T02:55:25;23.27;;;6.63;;
32455;SDS011;18912;43.270;27.942;2022-11-13T02:57:50;18.87;;;7.57;;
32455;SDS011;18912;43.270;27.942;2022-11-13T03:00:16;10.67;;;6.60;;
32455;SDS011;18912;43.270;27.942;2022-11-13T03:02:42;20.30;;;7.50;;
32455;SDS011;18912;43.270;27.942;2022-11-13T03:05:07;15.73;;;8.17;;
32455;SDS011;18912;43.270;27.942;2022-11-13T03:07:33;22.92;;;7.35;;
32455;SDS011;18912;43.270;27.942;2022-11-13T03:09:58;20.17;;;7.60;;
32455;SDS011;18912;43.270;27.942;2022-11-13T03:12:24;21.57;;;7.73;;
32455;SDS011;18912;43.270;27.942;2022-11-13T03:14:50;12.17;;;7.43;;
32455;SDS011;18912;43.270;27.942;2022-11-13T03:17:15;12.03;;;5.93;;
32455;SDS011;18912;43.270;27.942;2022-11-13T03:19:41;8.73;;;5.87;;
32455;SDS011;18912;43.270;27.942;2022-11-13T03:22:06;20.03;;;6.37;;
32455;SDS011;18912;43.270;27.942;2022-11-13T03:24:32;6.30;;;3.90;;
32455;SDS011;18912;43.270;27.942;2022-11-13T03:26:57;63.73;;;7.10;;
32455;SDS011;18912;43.270;27.942;2022-11-13T03:29:23;26.17;;;4.80;;
32455;SDS011;18912;43.270;27.942;2022-11-13T03:31:48;25.77;;;8.00;;
32455;SDS011;18912;43.270;27.942;2022-11-13T03:34:14;10.83;;;6.67;;
32455;SDS011;18912;43.270;27.942;2022-11-13T03:36:39;14.67;;;6.93;;
32455;SDS011;18912;43.270;27.942;2022-11-13T03:39:05;12.67;;;7.17;;
32455;SDS011;18912;43.270;27.942;2022-11-13T03:41:30;16.20;;;7.77;;
32455;SDS011;18912;43.270;27.942;2022-11-13T03:43:55;11.90;;;6.07;;
32455;SDS011;18912;43.270;27.942;2022-11-13T03:46:21;11.03;;;5.30;;
32455;SDS011;18912;43.270;27.942;2022-11-13T03:48:46;16.87;;;8.17;;
32455;SDS011;18912;43.270;27.942;2022-11-13T03:51:12;17.60;;;8.50;;
32455;SDS011;18912;43.270;27.942;2022-11-13T03:53:37;17.00;;;10.30;;
32455;SDS011;18912;43.270;27.942;2022-11-13T03:56:03;14.47;;;8.30;;
32455;SDS011;18912;43.270;27.942;2022-11-13T03:58:29;17.30;;;9.60;;
32455;SDS011;18912;43.270;27.942;2022-11-13T04:00:54;22.23;;;12.60;;
32455;SDS011;18912;43.270;27.942;2022-11-13T04:03:21;34.92;;;17.38;;
32455;SDS011;18912;43.270;27.942;2022-11-13T04:08:13;15.88;;;8.25;;
32455;SDS011;18912;43.270;27.942;2022-11-13T04:10:39;14.37;;;7.43;;
32455;SDS011;18912;43.270;27.942;2022-11-13T04:13:04;11.73;;;6.13;;
32455;SDS011;18912;43.270;27.942;2022-11-13T04:15:30;29.20;;;4.37;;
32455;SDS011;18912;43.270;27.942;2022-11-13T04:17:55;12.03;;;7.10;;
32455;SDS011;18912;43.270;27.942;2022-11-13T04:20:21;13.53;;;7.00;;
32455;SDS011;18912;43.270;27.942;2022-11-13T04:22:46;14.50;;;7.63;;
32455;SDS011;18912;43.270;27.942;2022-11-13T04:25:12;12.73;;;7.63;;
32455;SDS011;18912;43.270;27.942;2022-11-13T04:27:37;16.30;;;8.90;;
32455;SDS011;18912;43.270;27.942;2022-11-13T04:30:04;15.93;;;9.27;;
32455;SDS011;18912;43.270;27.942;2022-11-13T04:32:30;16.65;;;9.20;;
32455;SDS011;18912;43.270;27.942;2022-11-13T04:34:56;17.52;;;9.73;;
32455;SDS011;18912;43.270;27.942;2022-11-13T04:37:22;23.27;;;9.90;;
32455;SDS011;18912;43.270;27.942;2022-11-13T04:39:47;34.30;;;9.40;;
32455;SDS011;18912;43.270;27.942;2022-11-13T04:42:13;15.97;;;8.13;;
32455;SDS011;18912;43.270;27.942;2022-11-13T04:44:56;11.82;;;6.78;;
32455;SDS011;18912;43.270;27.942;2022-11-13T04:47:22;287.13;;;10.13;;
32455;SDS011;18912;43.270;27.942;2022-11-13T04:49:47;287.37;;;13.00;;
32455;SDS011;18912;43.270;27.942;2022-11-13T04:52:13;328.23;;;13.57;;
32455;SDS011;18912;43.270;27.942;2022-11-13T04:54:39;256.80;;;11.03;;
32455;SDS011;18912;43.270;27.942;2022-11-13T04:57:04;411.33;;;16.70;;
32455;SDS011;18912;43.270;27.942;2022-11-13T04:59:31;13.80;;;9.40;;
32455;SDS011;18912;43.270;27.942;2022-11-13T05:01:57;134.37;;;11.77;;
32455;SDS011;18912;43.270;27.942;2022-11-13T05:04:22;149.20;;;11.13;;
32455;SDS011;18912;43.270;27.942;2022-11-13T05:06:48;17.93;;;8.80;;
32455;SDS011;18912;43.270;27.942;2022-11-13T05:09:13;19.67;;;11.27;;
32455;SDS011;18912;43.270;27.942;2022-11-13T05:11:39;14.10;;;7.00;;
32455;SDS011;18912;43.270;27.942;2022-11-13T05:14:04;10.47;;;6.53;;
32455;SDS011;18912;43.270;27.942;2022-11-13T05:16:30;16.07;;;9.03;;
32455;SDS011;18912;43.270;27.942;2022-11-13T05:18:58;53.00;;;30.17;;
32455;SDS011;18912;43.270;27.942;2022-11-13T05:21:24;115.95;;;64.55;;
32455;SDS011;18912;43.270;27.942;2022-11-13T05:23:49;58.17;;;31.87;;
32455;SDS011;18912;43.270;27.942;2022-11-13T05:26:15;20.70;;;10.77;;
32455;SDS011;18912;43.270;27.942;2022-11-13T05:28:40;15.63;;;9.50;;
32455;SDS011;18912;43.270;27.942;2022-11-13T05:31:12;17.10;;;9.20;;
32455;SDS011;18912;43.270;27.942;2022-11-13T05:33:40;16.70;;;9.38;;
32455;SDS011;18912;43.270;27.942;2022-11-13T05:36:07;18.80;;;10.20;;
32455;SDS011;18912;43.270;27.942;2022-11-13T05:38:35;20.13;;;9.32;;
32455;SDS011;18912;43.270;27.942;2022-11-13T05:41:04;18.43;;;8.97;;
32455;SDS011;18912;43.270;27.942;2022-11-13T05:43:31;19.33;;;10.70;;
32455;SDS011;18912;43.270;27.942;2022-11-13T05:46:04;23.10;;;11.15;;
32455;SDS011;18912;43.270;27.942;2022-11-13T05:48:34;18.42;;;11.00;;
32455;SDS011;18912;43.270;27.942;2022-11-13T05:51:03;19.47;;;9.93;;
32455;SDS011;18912;43.270;27.942;2022-11-13T05:53:34;17.63;;;9.05;;
32455;SDS011;18912;43.270;27.942;2022-11-13T05:56:00;14.60;;;8.25;;
32455;SDS011;18912;43.270;27.942;2022-11-13T05:58:47;24.48;;;8.70;;
32455;SDS011;18912;43.270;27.942;2022-11-13T06:04:01;17.50;;;8.35;;
32455;SDS011;18912;43.270;27.942;2022-11-13T06:06:28;11.43;;;7.65;;
32455;SDS011;18912;43.270;27.942;2022-11-13T06:08:56;12.30;;;7.07;;
32455;SDS011;18912;43.270;27.942;2022-11-13T06:11:23;11.43;;;6.70;;
32455;SDS011;18912;43.270;27.942;2022-11-13T06:13:50;13.85;;;7.07;;
32455;SDS011;18912;43.270;27.942;2022-11-13T06:16:26;9.80;;;6.40;;
32455;SDS011;18912;43.270;27.942;2022-11-13T06:18:59;13.07;;;6.30;;
32455;SDS011;18912;43.270;27.942;2022-11-13T06:21:27;11.77;;;7.10;;
32455;SDS011;18912;43.270;27.942;2022-11-13T06:23:55;11.27;;;7.03;;
32455;SDS011;18912;43.270;27.942;2022-11-13T06:26:39;10.95;;;6.25;;
32455;SDS011;18912;43.270;27.942;2022-11-13T06:29:06;12.40;;;6.28;;
32455;SDS011;18912;43.270;27.942;2022-11-13T06:31:34;9.68;;;5.97;;
32455;SDS011;18912;43.270;27.942;2022-11-13T06:34:01;11.00;;;6.38;;
32455;SDS011;18912;43.270;27.942;2022-11-13T06:36:28;9.43;;;6.57;;
32455;SDS011;18912;43.270;27.942;2022-11-13T06:38:55;13.13;;;7.40;;
32455;SDS011;18912;43.270;27.942;2022-11-13T06:41:21;26.30;;;11.03;;
32455;SDS011;18912;43.270;27.942;2022-11-13T06:43:48;20.90;;;10.07;;
32455;SDS011;18912;43.270;27.942;2022-11-13T06:46:16;14.32;;;9.75;;
32455;SDS011;18912;43.270;27.942;2022-11-13T06:48:47;21.10;;;10.15;;
32455;SDS011;18912;43.270;27.942;2022-11-13T06:51:14;17.85;;;10.25;;
32455;SDS011;18912;43.270;27.942;2022-11-13T06:53:41;16.55;;;9.80;;
32455;SDS011;18912;43.270;27.942;2022-11-13T06:56:07;14.02;;;8.30;;
32455;SDS011;18912;43.270;27.942;2022-11-13T06:58:33;12.23;;;7.55;;
32455;SDS011;18912;43.270;27.942;2022-11-13T07:03:32;11.23;;;7.65;;
32455;SDS011;18912;43.270;27.942;2022-11-13T07:06:00;10.90;;;7.93;;
32455;SDS011;18912;43.270;27.942;2022-11-13T07:08:27;13.95;;;8.45;;
32455;SDS011;18912;43.270;27.942;2022-11-13T07:10:53;11.63;;;7.93;;
32455;SDS011;18912;43.270;27.942;2022-11-13T07:13:20;13.25;;;7.45;;
32455;SDS011;18912;43.270;27.942;2022-11-13T07:18:11;10.77;;;6.93;;
32455;SDS011;18912;43.270;27.942;2022-11-13T07:20:37;13.47;;;6.70;;
32455;SDS011;18912;43.270;27.942;2022-11-13T07:23:02;12.23;;;7.23;;
32455;SDS011;18912;43.270;27.942;2022-11-13T07:25:29;11.10;;;6.30;;
32455;SDS011;18912;43.270;27.942;2022-11-13T07:30:20;13.10;;;6.22;;
32455;SDS011;18912;43.270;27.942;2022-11-13T07:32:46;10.40;;;6.30;;
32455;SDS011;18912;43.270;27.942;2022-11-13T07:35:12;11.60;;;6.47;;
32455;SDS011;18912;43.270;27.942;2022-11-13T07:37:37;10.73;;;6.90;;
32455;SDS011;18912;43.270;27.942;2022-11-13T07:40:03;8.10;;;5.70;;
32455;SDS011;18912;43.270;27.942;2022-11-13T07:42:30;10.55;;;5.80;;
32455;SDS011;18912;43.270;27.942;2022-11-13T07:44:55;10.57;;;5.30;;
32455;SDS011;18912;43.270;27.942;2022-11-13T07:47:21;9.10;;;5.50;;
32455;SDS011;18912;43.270;27.942;2022-11-13T07:49:47;8.10;;;5.97;;
32455;SDS011;18912;43.270;27.942;2022-11-13T07:52:12;9.77;;;6.40;;
32455;SDS011;18912;43.270;27.942;2022-11-13T07:54:38;13.73;;;6.73;;
32455;SDS011;18912;43.270;27.942;2022-11-13T07:57:03;13.73;;;7.67;;
32455;SDS011;18912;43.270;27.942;2022-11-13T07:59:29;11.83;;;7.80;;
32455;SDS011;18912;43.270;27.942;2022-11-13T08:01:54;14.93;;;7.93;;
32455;SDS011;18912;43.270;27.942;2022-11-13T08:04:20;12.37;;;8.43;;
32455;SDS011;18912;43.270;27.942;2022-11-13T08:06:45;12.67;;;8.30;;
32455;SDS011;18912;43.270;27.942;2022-11-13T08:09:11;18.37;;;9.00;;
32455;SDS011;18912;43.270;27.942;2022-11-13T08:11:36;13.13;;;8.67;;
32455;SDS011;18912;43.270;27.942;2022-11-13T08:14:02;15.40;;;8.90;;
32455;SDS011;18912;43.270;27.942;2022-11-13T08:16:27;13.37;;;9.43;;
32455;SDS011;18912;43.270;27.942;2022-11-13T08:18:53;18.97;;;9.10;;
32455;SDS011;18912;43.270;27.942;2022-11-13T08:21:18;14.07;;;8.60;;
32455;SDS011;18912;43.270;27.942;2022-11-13T08:23:45;14.15;;;8.40;;
32455;SDS011;18912;43.270;27.942;2022-11-13T08:26:11;17.10;;;9.27;;
32455;SDS011;18912;43.270;27.942;2022-11-13T08:28:37;14.25;;;8.80;;
32455;SDS011;18912;43.270;27.942;2022-11-13T08:31:03;14.23;;;8.37;;
32455;SDS011;18912;43.270;27.942;2022-11-13T08:33:33;14.20;;;9.00;;
32455;SDS011;18912;43.270;27.942;2022-11-13T08:35:58;12.23;;;8.47;;
32455;SDS011;18912;43.270;27.942;2022-11-13T08:38:24;13.50;;;8.13;;
32455;SDS011;18912;43.270;27.942;2022-11-13T08:40:50;19.00;;;8.93;;
32455;SDS011;18912;43.270;27.942;2022-11-13T08:43:16;13.27;;;7.70;;
32455;SDS011;18912;43.270;27.942;2022-11-13T08:48:11;15.13;;;8.00;;
32455;SDS011;18912;43.270;27.942;2022-11-13T08:50:37;16.90;;;7.80;;
32455;SDS011;18912;43.270;27.942;2022-11-13T08:53:03;13.32;;;7.80;;
32455;SDS011;18912;43.270;27.942;2022-11-13T08:55:31;20.90;;;8.20;;
32455;SDS011;18912;43.270;27.942;2022-11-13T08:57:58;12.07;;;8.02;;
32455;SDS011;18912;43.270;27.942;2022-11-13T09:00:24;22.45;;;8.60;;
32455;SDS011;18912;43.270;27.942;2022-11-13T09:05:23;14.57;;;7.55;;
32455;SDS011;18912;43.270;27.942;2022-11-13T09:07:49;14.03;;;7.27;;
32455;SDS011;18912;43.270;27.942;2022-11-13T09:10:15;14.33;;;7.63;;
32455;SDS011;18912;43.270;27.942;2022-11-13T09:15:07;9.93;;;6.57;;
32455;SDS011;18912;43.270;27.942;2022-11-13T09:17:33;14.93;;;6.68;;
32455;SDS011;18912;43.270;27.942;2022-11-13T09:19:59;14.93;;;7.10;;
32455;SDS011;18912;43.270;27.942;2022-11-13T09:22:24;10.30;;;6.40;;
32455;SDS011;18912;43.270;27.942;2022-11-13T09:24:50;16.87;;;7.00;;
32455;SDS011;18912;43.270;27.942;2022-11-13T09:27:15;12.97;;;6.10;;
32455;SDS011;18912;43.270;27.942;2022-11-13T09:29:41;10.97;;;6.47;;
32455;SDS011;18912;43.270;27.942;2022-11-13T09:32:06;11.00;;;6.27;;
32455;SDS011;18912;43.270;27.942;2022-11-13T09:34:32;9.07;;;5.53;;
32455;SDS011;18912;43.270;27.942;2022-11-13T09:36:58;10.50;;;6.45;;
32455;SDS011;18912;43.270;27.942;2022-11-13T09:39:23;6.77;;;4.63;;
32455;SDS011;18912;43.270;27.942;2022-11-13T09:41:53;15.93;;;7.27;;
32455;SDS011;18912;43.270;27.942;2022-11-13T09:44:28;12.40;;;6.75;;
32455;SDS011;18912;43.270;27.942;2022-11-13T09:49:30;11.38;;;7.40;;
32455;SDS011;18912;43.270;27.942;2022-11-13T09:52:00;12.40;;;6.68;;
32455;SDS011;18912;43.270;27.942;2022-11-13T09:54:28;17.27;;;6.80;;
32455;SDS011;18912;43.270;27.942;2022-11-13T09:59:39;12.93;;;6.53;;
32455;SDS011;18912;43.270;27.942;2022-11-13T10:07:32;14.07;;;7.80;;
32455;SDS011;18912;43.270;27.942;2022-11-13T10:11:10;22.25;;;9.45;;
32455;SDS011;18912;43.270;27.942;2022-11-13T10:13:55;19.65;;;10.30;;
32455;SDS011;18912;43.270;27.942;2022-11-13T10:19:28;13.00;;;7.18;;
32455;SDS011;18912;43.270;27.942;2022-11-13T10:22:30;14.05;;;8.02;;
32455;SDS011;18912;43.270;27.942;2022-11-13T10:24:47;18.98;;;8.32;;
32455;SDS011;18912;43.270;27.942;2022-11-13T10:27:16;18.08;;;9.05;;
32455;SDS011;18912;43.270;27.942;2022-11-13T10:29:42;13.40;;;7.47;;
32455;SDS011;18912;43.270;27.942;2022-11-13T10:32:19;14.10;;;7.93;;
32455;SDS011;18912;43.270;27.942;2022-11-13T10:34:50;35.72;;;19.45;;
32455;SDS011;18912;43.270;27.942;2022-11-13T10:40:30;17.75;;;8.48;;
32455;SDS011;18912;43.270;27.942;2022-11-13T10:43:30;17.00;;;8.35;;
32455;SDS011;18912;43.270;27.942;2022-11-13T10:45:53;17.98;;;8.68;;
32455;SDS011;18912;43.270;27.942;2022-11-13T10:48:22;16.40;;;11.05;;
32455;SDS011;18912;43.270;27.942;2022-11-13T10:50:57;18.13;;;9.02;;
32455;SDS011;18912;43.270;27.942;2022-11-13T10:53:34;16.42;;;8.98;;
32455;SDS011;18912;43.270;27.942;2022-11-13T10:58:38;17.02;;;9.50;;
32455;SDS011;18912;43.270;27.942;2022-11-13T11:01:14;16.53;;;9.07;;
32455;SDS011;18912;43.270;27.942;2022-11-13T11:03:49;19.58;;;9.73;;
32455;SDS011;18912;43.270;27.942;2022-11-13T11:06:15;13.98;;;9.90;;
32455;SDS011;18912;43.270;27.942;2022-11-13T11:08:40;21.77;;;10.70;;
32455;SDS011;18912;43.270;27.942;2022-11-13T11:11:07;17.23;;;9.63;;
32455;SDS011;18912;43.270;27.942;2022-11-13T11:14:05;18.23;;;10.45;;
32455;SDS011;18912;43.270;27.942;2022-11-13T11:16:41;18.13;;;9.77;;
32455;SDS011;18912;43.270;27.942;2022-11-13T11:19:09;22.88;;;11.23;;
32455;SDS011;18912;43.270;27.942;2022-11-13T11:21:38;25.08;;;11.32;;
32455;SDS011;18912;43.270;27.942;2022-11-13T11:24:27;24.92;;;12.25;;
32455;SDS011;18912;43.270;27.942;2022-11-13T11:27:00;25.77;;;12.23;;
32455;SDS011;18912;43.270;27.942;2022-11-13T11:29:42;17.88;;;10.98;;
32455;SDS011;18912;43.270;27.942;2022-11-13T11:32:15;21.45;;;10.82;;
32455;SDS011;18912;43.270;27.942;2022-11-13T11:37:38;21.27;;;11.38;;
32455;SDS011;18912;43.270;27.942;2022-11-13T11:42:46;27.40;;;13.23;;
32455;SDS011;18912;43.270;27.942;2022-11-13T11:45:25;23.77;;;12.95;;
32455;SDS011;18912;43.270;27.942;2022-11-13T11:47:57;32.17;;;16.60;;
32455;SDS011;18912;43.270;27.942;2022-11-13T11:53:30;32.80;;;16.60;;
32455;SDS011;18912;43.270;27.942;2022-11-13T12:07:48;26.52;;;14.70;;
32455;SDS011;18912;43.270;27.942;2022-11-13T12:10:35;25.60;;;14.52;;
32455;SDS011;18912;43.270;27.942;2022-11-13T12:18:58;36.13;;;18.33;;
32455;SDS011;18912;43.270;27.942;2022-11-13T12:24:40;29.85;;;17.15;;
32455;SDS011;18912;43.270;27.942;2022-11-13T12:27:30;30.48;;;16.42;;
32455;SDS011;18912;43.270;27.942;2022-11-13T12:35:22;35.37;;;16.03;;
32455;SDS011;18912;43.270;27.942;2022-11-13T12:37:57;31.38;;;16.02;;
32455;SDS011;18912;43.270;27.942;2022-11-13T12:46:09;26.08;;;14.30;;
32455;SDS011;18912;43.270;27.942;2022-11-13T12:48:37;26.60;;;13.68;;
32455;SDS011;18912;43.270;27.942;2022-11-13T12:51:12;25.05;;;13.93;;
32455;SDS011;18912;43.270;27.942;2022-11-13T12:53:49;26.25;;;14.05;;
32455;SDS011;18912;43.270;27.942;2022-11-13T12:58:57;31.83;;;13.52;;
32455;SDS011;18912;43.270;27.942;2022-11-13T13:01:42;23.98;;;13.13;;
32455;SDS011;18912;43.270;27.942;2022-11-13T13:15:09;26.45;;;15.43;;
32455;SDS011;18912;43.270;27.942;2022-11-13T13:17:35;30.85;;;15.57;;
32455;SDS011;18912;43.270;27.942;2022-11-13T13:20:05;24.07;;;12.17;;
32455;SDS011;18912;43.270;27.942;2022-11-13T13:22:37;26.35;;;10.80;;
32455;SDS011;18912;43.270;27.942;2022-11-13T13:25:21;24.33;;;11.40;;
32455;SDS011;18912;43.270;27.942;2022-11-13T13:27:56;24.15;;;12.10;;
32455;SDS011;18912;43.270;27.942;2022-11-13T13:30:27;15.77;;;9.02;;
32455;SDS011;18912;43.270;27.942;2022-11-13T13:35:51;19.48;;;10.70;;
32455;SDS011;18912;43.270;27.942;2022-11-13T13:48:29;26.63;;;13.00;;
32455;SDS011;18912;43.270;27.942;2022-11-13T13:50:55;17.38;;;10.43;;
32455;SDS011;18912;43.270;27.942;2022-11-13T13:53:30;23.67;;;12.02;;
32455;SDS011;18912;43.270;27.942;2022-11-13T13:55:58;25.13;;;13.15;;
32455;SDS011;18912;43.270;27.942;2022-11-13T13:58:30;24.95;;;14.57;;
32455;SDS011;18912;43.270;27.942;2022-11-13T14:01:00;34.25;;;21.52;;
32455;SDS011;18912;43.270;27.942;2022-11-13T14:03:28;41.80;;;23.50;;
32455;SDS011;18912;43.270;27.942;2022-11-13T14:05:54;34.85;;;20.23;;
32455;SDS011;18912;43.270;27.942;2022-11-13T14:08:22;26.52;;;13.55;;
32455;SDS011;18912;43.270;27.942;2022-11-13T14:10:49;117.28;;;53.50;;
32455;SDS011;18912;43.270;27.942;2022-11-13T14:13:23;82.10;;;40.15;;
32455;SDS011;18912;43.270;27.942;2022-11-13T14:16:00;58.10;;;31.38;;
32455;SDS011;18912;43.270;27.942;2022-11-13T14:18:30;43.97;;;23.38;;
32455;SDS011;18912;43.270;27.942;2022-11-13T14:20:57;31.98;;;15.82;;
32455;SDS011;18912;43.270;27.942;2022-11-13T14:23:35;20.58;;;11.65;;
32455;SDS011;18912;43.270;27.942;2022-11-13T14:26:01;23.90;;;15.27;;
32455;SDS011;18912;43.270;27.942;2022-11-13T14:28:31;25.65;;;14.43;;
32455;SDS011;18912;43.270;27.942;2022-11-13T14:31:08;30.33;;;17.45;;
32455;SDS011;18912;43.270;27.942;2022-11-13T14:33:39;37.55;;;19.77;;
32455;SDS011;18912;43.270;27.942;2022-11-13T14:36:11;22.83;;;13.48;;
32455;SDS011;18912;43.270;27.942;2022-11-13T14:38:42;25.20;;;11.25;;
32455;SDS011;18912;43.270;27.942;2022-11-13T14:41:22;20.38;;;12.27;;
32455;SDS011;18912;43.270;27.942;2022-11-13T14:43:55;28.20;;;14.05;;
32455;SDS011;18912;43.270;27.942;2022-11-13T14:46:34;29.67;;;17.23;;
32455;SDS011;18912;43.270;27.942;2022-11-13T14:49:02;31.20;;;18.83;;
32455;SDS011;18912;43.270;27.942;2022-11-13T14:51:29;26.85;;;16.08;;
32455;SDS011;18912;43.270;27.942;2022-11-13T14:53:57;30.77;;;18.85;;
32455;SDS011;18912;43.270;27.942;2022-11-13T14:56:31;32.13;;;16.65;;
32455;SDS011;18912;43.270;27.942;2022-11-13T15:01:40;32.25;;;19.48;;
32455;SDS011;18912;43.270;27.942;2022-11-13T15:04:17;50.10;;;27.58;;
32455;SDS011;18912;43.270;27.942;2022-11-13T15:06:42;31.90;;;14.93;;
32455;SDS011;18912;43.270;27.942;2022-11-13T15:09:12;27.40;;;13.27;;
32455;SDS011;18912;43.270;27.942;2022-11-13T15:11:40;31.45;;;15.68;;
32455;SDS011;18912;43.270;27.942;2022-11-13T15:14:12;29.37;;;17.90;;
32455;SDS011;18912;43.270;27.942;2022-11-13T15:16:42;29.77;;;16.63;;
32455;SDS011;18912;43.270;27.942;2022-11-13T15:21:51;43.70;;;25.30;;
32455;SDS011;18912;43.270;27.942;2022-11-13T15:24:16;27.57;;;14.13;;
32455;SDS011;18912;43.270;27.942;2022-11-13T15:26:42;33.08;;;19.65;;
32455;SDS011;18912;43.270;27.942;2022-11-13T15:29:08;32.87;;;21.07;;
32455;SDS011;18912;43.270;27.942;2022-11-13T15:31:34;51.57;;;28.97;;
32455;SDS011;18912;43.270;27.942;2022-11-13T15:34:02;32.80;;;20.30;;
32455;SDS011;18912;43.270;27.942;2022-11-13T15:36:28;37.38;;;23.30;;
32455;SDS011;18912;43.270;27.942;2022-11-13T15:38:53;33.27;;;18.10;;
32455;SDS011;18912;43.270;27.942;2022-11-13T15:41:20;27.47;;;15.00;;
32455;SDS011;18912;43.270;27.942;2022-11-13T15:43:47;34.25;;;16.15;;
32455;SDS011;18912;43.270;27.942;2022-11-13T15:46:15;53.28;;;30.92;;
32455;SDS011;18912;43.270;27.942;2022-11-13T15:48:45;37.15;;;21.30;;
32455;SDS011;18912;43.270;27.942;2022-11-13T15:51:18;37.80;;;20.35;;
32455;SDS011;18912;43.270;27.942;2022-11-13T15:53:48;34.97;;;16.65;;
32455;SDS011;18912;43.270;27.942;2022-11-13T15:56:16;28.80;;;14.80;;
32455;SDS011;18912;43.270;27.942;2022-11-13T15:58:42;29.08;;;13.73;;
32455;SDS011;18912;43.270;27.942;2022-11-13T16:01:09;30.67;;;14.23;;
32455;SDS011;18912;43.270;27.942;2022-11-13T16:03:38;74.57;;;41.58;;
32455;SDS011;18912;43.270;27.942;2022-11-13T16:06:06;59.38;;;34.33;;
32455;SDS011;18912;43.270;27.942;2022-11-13T16:08:35;53.58;;;29.40;;
32455;SDS011;18912;43.270;27.942;2022-11-13T16:11:01;48.37;;;28.87;;
32455;SDS011;18912;43.270;27.942;2022-11-13T16:13:26;61.60;;;28.90;;
32455;SDS011;18912;43.270;27.942;2022-11-13T16:15:52;46.27;;;22.63;;
32455;SDS011;18912;43.270;27.942;2022-11-13T16:18:25;35.88;;;20.05;;